sensor_id;sensor_type;location;lat;lon;timestamp;temperature;humidity
28175;SHT30;59417;44.788;10.334;2023-05-07T00:01:01;20.82;65.93
28175;SHT30;59417;44.788;10.334;2023-05-07T00:03:27;20.70;66.52
28175;SHT30;59417;44.788;10.334;2023-05-07T00:05:54;20.70;66.57
28175;SHT30;59417;44.788;10.334;2023-05-07T00:08:19;20.61;66.77
28175;SHT30;59417;44.788;10.334;2023-05-07T00:10:45;20.68;67.06
28175;SHT30;59417;44.788;10.334;2023-05-07T00:13:12;20.65;67.05
28175;SHT30;59417;44.788;10.334;2023-05-07T00:15:37;20.67;66.85
28175;SHT30;59417;44.788;10.334;2023-05-07T00:18:03;20.55;67.26
28175;SHT30;59417;44.788;10.334;2023-05-07T00:20:28;20.58;67.44
28175;SHT30;59417;44.788;10.334;2023-05-07T00:22:55;20.51;67.40
28175;SHT30;59417;44.788;10.334;2023-05-07T00:25:21;20.47;67.02
28175;SHT30;59417;44.788;10.334;2023-05-07T00:27:46;20.60;66.47
28175;SHT30;59417;44.788;10.334;2023-05-07T00:30:12;20.47;66.94
28175;SHT30;59417;44.788;10.334;2023-05-07T00:32:38;20.53;66.89
28175;SHT30;59417;44.788;10.334;2023-05-07T00:35:05;20.58;66.65
28175;SHT30;59417;44.788;10.334;2023-05-07T00:37:31;20.60;66.33
28175;SHT30;59417;44.788;10.334;2023-05-07T00:39:58;20.61;66.28
28175;SHT30;59417;44.788;10.334;2023-05-07T00:42:24;20.60;65.97
28175;SHT30;59417;44.788;10.334;2023-05-07T00:44:49;20.57;66.33
28175;SHT30;59417;44.788;10.334;2023-05-07T00:47:15;20.53;66.92
28175;SHT30;59417;44.788;10.334;2023-05-07T00:49:42;20.50;66.96
28175;SHT30;59417;44.788;10.334;2023-05-07T00:52:14;20.45;67.13
28175;SHT30;59417;44.788;10.334;2023-05-07T00:54:41;20.31;67.67
28175;SHT30;59417;44.788;10.334;2023-05-07T00:57:09;20.09;68.60
28175;SHT30;59417;44.788;10.334;2023-05-07T00:59:34;19.93;69.17
28175;SHT30;59417;44.788;10.334;2023-05-07T01:02:00;19.92;69.19
28175;SHT30;59417;44.788;10.334;2023-05-07T01:04:26;20.03;68.75
28175;SHT30;59417;44.788;10.334;2023-05-07T01:06:54;19.95;69.10
28175;SHT30;59417;44.788;10.334;2023-05-07T01:09:22;20.06;69.02
28175;SHT30;59417;44.788;10.334;2023-05-07T01:11:49;19.95;69.61
28175;SHT30;59417;44.788;10.334;2023-05-07T01:14:16;19.93;69.24
28175;SHT30;59417;44.788;10.334;2023-05-07T01:16:42;19.83;69.79
28175;SHT30;59417;44.788;10.334;2023-05-07T01:19:09;19.86;69.93
28175;SHT30;59417;44.788;10.334;2023-05-07T01:21:38;19.80;69.38
28175;SHT30;59417;44.788;10.334;2023-05-07T01:24:05;19.52;70.34
28175;SHT30;59417;44.788;10.334;2023-05-07T01:26:32;19.58;70.38
28175;SHT30;59417;44.788;10.334;2023-05-07T01:28:58;19.51;70.93
28175;SHT30;59417;44.788;10.334;2023-05-07T01:31:24;19.39;71.35
28175;SHT30;59417;44.788;10.334;2023-05-07T01:33:50;19.54;71.22
28175;SHT30;59417;44.788;10.334;2023-05-07T01:36:17;19.41;71.59
28175;SHT30;59417;44.788;10.334;2023-05-07T01:38:44;19.34;71.54
28175;SHT30;59417;44.788;10.334;2023-05-07T01:41:11;19.49;71.24
28175;SHT30;59417;44.788;10.334;2023-05-07T01:43:37;19.34;71.56
28175;SHT30;59417;44.788;10.334;2023-05-07T01:46:03;19.38;71.21
28175;SHT30;59417;44.788;10.334;2023-05-07T01:48:29;19.34;71.61
28175;SHT30;59417;44.788;10.334;2023-05-07T01:50:55;19.31;71.92
28175;SHT30;59417;44.788;10.334;2023-05-07T01:53:21;19.30;71.73
28175;SHT30;59417;44.788;10.334;2023-05-07T01:55:46;19.34;71.54
28175;SHT30;59417;44.788;10.334;2023-05-07T01:58:12;19.32;71.76
28175;SHT30;59417;44.788;10.334;2023-05-07T02:00:39;19.23;72.05
28175;SHT30;59417;44.788;10.334;2023-05-07T02:03:06;19.18;72.21
28175;SHT30;59417;44.788;10.334;2023-05-07T02:05:40;19.32;72.06
28175;SHT30;59417;44.788;10.334;2023-05-07T02:08:24;19.48;71.73
28175;SHT30;59417;44.788;10.334;2023-05-07T02:10:50;19.55;71.45
28175;SHT30;59417;44.788;10.334;2023-05-07T02:13:16;19.51;71.93
28175;SHT30;59417;44.788;10.334;2023-05-07T02:15:42;19.37;72.45
28175;SHT30;59417;44.788;10.334;2023-05-07T02:18:09;19.27;72.85
28175;SHT30;59417;44.788;10.334;2023-05-07T02:20:35;19.25;73.01
28175;SHT30;59417;44.788;10.334;2023-05-07T02:23:01;19.23;73.36
28175;SHT30;59417;44.788;10.334;2023-05-07T02:25:29;19.07;73.57
28175;SHT30;59417;44.788;10.334;2023-05-07T02:27:55;18.98;74.09
28175;SHT30;59417;44.788;10.334;2023-05-07T02:30:26;19.10;73.64
28175;SHT30;59417;44.788;10.334;2023-05-07T02:32:55;18.90;73.98
28175;SHT30;59417;44.788;10.334;2023-05-07T02:35:20;18.97;73.35
28175;SHT30;59417;44.788;10.334;2023-05-07T02:37:46;18.66;74.66
28175;SHT30;59417;44.788;10.334;2023-05-07T02:40:13;18.64;74.41
28175;SHT30;59417;44.788;10.334;2023-05-07T02:42:38;18.81;73.35
28175;SHT30;59417;44.788;10.334;2023-05-07T02:45:05;18.87;72.61
28175;SHT30;59417;44.788;10.334;2023-05-07T02:47:30;18.91;69.22
28175;SHT30;59417;44.788;10.334;2023-05-07T02:49:58;19.01;67.94
28175;SHT30;59417;44.788;10.334;2023-05-07T02:52:23;19.00;68.92
28175;SHT30;59417;44.788;10.334;2023-05-07T02:54:49;19.10;67.02
28175;SHT30;59417;44.788;10.334;2023-05-07T02:57:15;18.88;64.70
28175;SHT30;59417;44.788;10.334;2023-05-07T02:59:41;18.86;64.78
28175;SHT30;59417;44.788;10.334;2023-05-07T03:02:07;18.76;64.82
28175;SHT30;59417;44.788;10.334;2023-05-07T03:04:33;18.79;65.37
28175;SHT30;59417;44.788;10.334;2023-05-07T03:06:58;18.73;65.10
28175;SHT30;59417;44.788;10.334;2023-05-07T03:09:24;18.62;65.16
28175;SHT30;59417;44.788;10.334;2023-05-07T03:11:50;18.60;64.92
28175;SHT30;59417;44.788;10.334;2023-05-07T03:14:15;18.56;65.72
28175;SHT30;59417;44.788;10.334;2023-05-07T03:16:41;18.53;64.93
28175;SHT30;59417;44.788;10.334;2023-05-07T03:19:07;18.60;64.64
28175;SHT30;59417;44.788;10.334;2023-05-07T03:21:32;18.56;65.12
28175;SHT30;59417;44.788;10.334;2023-05-07T03:23:59;18.53;66.04
28175;SHT30;59417;44.788;10.334;2023-05-07T03:26:25;18.51;65.38
28175;SHT30;59417;44.788;10.334;2023-05-07T03:28:51;18.51;65.33
28175;SHT30;59417;44.788;10.334;2023-05-07T03:31:17;18.46;65.57
28175;SHT30;59417;44.788;10.334;2023-05-07T03:33:55;18.51;65.67
28175;SHT30;59417;44.788;10.334;2023-05-07T03:36:21;18.46;65.72
28175;SHT30;59417;44.788;10.334;2023-05-07T03:38:47;18.33;66.07
28175;SHT30;59417;44.788;10.334;2023-05-07T03:41:17;18.26;66.67
28175;SHT30;59417;44.788;10.334;2023-05-07T03:43:44;18.21;66.75
28175;SHT30;59417;44.788;10.334;2023-05-07T03:46:12;18.19;66.84
28175;SHT30;59417;44.788;10.334;2023-05-07T03:48:38;18.22;66.87
28175;SHT30;59417;44.788;10.334;2023-05-07T03:51:04;18.18;66.83
28175;SHT30;59417;44.788;10.334;2023-05-07T03:53:32;18.22;66.86
28175;SHT30;59417;44.788;10.334;2023-05-07T03:55:58;18.21;67.32
28175;SHT30;59417;44.788;10.334;2023-05-07T03:58:23;18.11;68.11
28175;SHT30;59417;44.788;10.334;2023-05-07T04:00:52;18.06;67.62
28175;SHT30;59417;44.788;10.334;2023-05-07T04:03:23;18.09;67.43
28175;SHT30;59417;44.788;10.334;2023-05-07T04:05:49;17.98;67.66
28175;SHT30;59417;44.788;10.334;2023-05-07T04:08:14;18.01;68.03
28175;SHT30;59417;44.788;10.334;2023-05-07T04:10:45;17.94;68.22
28175;SHT30;59417;44.788;10.334;2023-05-07T04:13:12;18.08;68.51
28175;SHT30;59417;44.788;10.334;2023-05-07T04:15:38;18.12;68.12
28175;SHT30;59417;44.788;10.334;2023-05-07T04:18:07;18.11;68.10
28175;SHT30;59417;44.788;10.334;2023-05-07T04:20:34;18.12;68.34
28175;SHT30;59417;44.788;10.334;2023-05-07T04:23:02;18.05;67.70
28175;SHT30;59417;44.788;10.334;2023-05-07T04:25:29;18.08;66.94
28175;SHT30;59417;44.788;10.334;2023-05-07T04:28:02;17.97;68.09
28175;SHT30;59417;44.788;10.334;2023-05-07T04:30:29;17.98;65.98
28175;SHT30;59417;44.788;10.334;2023-05-07T04:32:54;18.01;65.17
28175;SHT30;59417;44.788;10.334;2023-05-07T04:35:22;17.98;65.09
28175;SHT30;59417;44.788;10.334;2023-05-07T04:37:48;18.11;64.59
28175;SHT30;59417;44.788;10.334;2023-05-07T04:40:14;18.16;66.33
28175;SHT30;59417;44.788;10.334;2023-05-07T04:42:42;18.16;66.28
28175;SHT30;59417;44.788;10.334;2023-05-07T04:45:08;18.19;66.80
28175;SHT30;59417;44.788;10.334;2023-05-07T04:47:37;18.26;64.59
28175;SHT30;59417;44.788;10.334;2023-05-07T04:50:02;18.18;64.88
28175;SHT30;59417;44.788;10.334;2023-05-07T04:52:28;18.18;65.01
28175;SHT30;59417;44.788;10.334;2023-05-07T04:54:54;18.25;64.44
28175;SHT30;59417;44.788;10.334;2023-05-07T04:57:20;18.28;64.75
28175;SHT30;59417;44.788;10.334;2023-05-07T04:59:46;18.23;65.75
28175;SHT30;59417;44.788;10.334;2023-05-07T05:02:12;18.23;65.86
28175;SHT30;59417;44.788;10.334;2023-05-07T05:04:38;18.30;65.60
28175;SHT30;59417;44.788;10.334;2023-05-07T05:07:04;18.32;65.76
28175;SHT30;59417;44.788;10.334;2023-05-07T05:09:30;18.39;65.24
28175;SHT30;59417;44.788;10.334;2023-05-07T05:11:56;18.21;64.85
28175;SHT30;59417;44.788;10.334;2023-05-07T05:14:22;18.13;64.97
28175;SHT30;59417;44.788;10.334;2023-05-07T05:16:49;18.16;64.92
28175;SHT30;59417;44.788;10.334;2023-05-07T05:19:15;18.08;65.26
28175;SHT30;59417;44.788;10.334;2023-05-07T05:21:43;18.11;65.43
28175;SHT30;59417;44.788;10.334;2023-05-07T05:24:09;18.01;65.32
28175;SHT30;59417;44.788;10.334;2023-05-07T05:26:35;18.04;65.95
28175;SHT30;59417;44.788;10.334;2023-05-07T05:29:02;17.98;66.09
28175;SHT30;59417;44.788;10.334;2023-05-07T05:31:30;18.04;66.48
28175;SHT30;59417;44.788;10.334;2023-05-07T05:33:55;17.98;66.83
28175;SHT30;59417;44.788;10.334;2023-05-07T05:36:21;18.04;66.92
28175;SHT30;59417;44.788;10.334;2023-05-07T05:38:49;18.06;66.14
28175;SHT30;59417;44.788;10.334;2023-05-07T05:41:15;18.09;66.10
28175;SHT30;59417;44.788;10.334;2023-05-07T05:43:41;18.11;66.73
28175;SHT30;59417;44.788;10.334;2023-05-07T05:46:07;18.15;66.52
28175;SHT30;59417;44.788;10.334;2023-05-07T05:48:34;18.23;66.07
28175;SHT30;59417;44.788;10.334;2023-05-07T05:51:01;18.36;67.04
28175;SHT30;59417;44.788;10.334;2023-05-07T05:53:26;18.21;66.44
28175;SHT30;59417;44.788;10.334;2023-05-07T05:55:53;18.21;67.36
28175;SHT30;59417;44.788;10.334;2023-05-07T05:58:19;18.26;66.72
28175;SHT30;59417;44.788;10.334;2023-05-07T06:00:51;18.26;66.65
28175;SHT30;59417;44.788;10.334;2023-05-07T06:03:19;18.30;66.65
28175;SHT30;59417;44.788;10.334;2023-05-07T06:05:46;18.35;67.25
28175;SHT30;59417;44.788;10.334;2023-05-07T06:08:13;18.36;66.69
28175;SHT30;59417;44.788;10.334;2023-05-07T06:10:38;18.30;66.35
28175;SHT30;59417;44.788;10.334;2023-05-07T06:13:07;18.35;66.79
28175;SHT30;59417;44.788;10.334;2023-05-07T06:15:33;18.42;67.01
28175;SHT30;59417;44.788;10.334;2023-05-07T06:18:05;18.36;67.22
28175;SHT30;59417;44.788;10.334;2023-05-07T06:20:31;18.45;66.92
28175;SHT30;59417;44.788;10.334;2023-05-07T06:22:58;18.37;67.01
28175;SHT30;59417;44.788;10.334;2023-05-07T06:25:24;18.52;68.50
28175;SHT30;59417;44.788;10.334;2023-05-07T06:27:50;18.63;67.58
28175;SHT30;59417;44.788;10.334;2023-05-07T06:30:15;18.66;68.14
28175;SHT30;59417;44.788;10.334;2023-05-07T06:32:41;18.72;68.26
28175;SHT30;59417;44.788;10.334;2023-05-07T06:35:08;18.77;67.99
28175;SHT30;59417;44.788;10.334;2023-05-07T06:37:36;18.70;67.98
28175;SHT30;59417;44.788;10.334;2023-05-07T06:40:06;18.69;68.76
28175;SHT30;59417;44.788;10.334;2023-05-07T06:42:35;18.72;68.73
28175;SHT30;59417;44.788;10.334;2023-05-07T06:45:19;18.87;68.13
28175;SHT30;59417;44.788;10.334;2023-05-07T06:47:45;18.94;68.11
28175;SHT30;59417;44.788;10.334;2023-05-07T06:50:11;18.96;67.88
28175;SHT30;59417;44.788;10.334;2023-05-07T06:52:37;19.01;68.25
28175;SHT30;59417;44.788;10.334;2023-05-07T06:55:04;19.07;68.26
28175;SHT30;59417;44.788;10.334;2023-05-07T06:57:30;19.03;67.91
28175;SHT30;59417;44.788;10.334;2023-05-07T06:59:56;19.04;68.39
28175;SHT30;59417;44.788;10.334;2023-05-07T07:02:22;19.00;68.29
28175;SHT30;59417;44.788;10.334;2023-05-07T07:04:48;19.10;68.26
28175;SHT30;59417;44.788;10.334;2023-05-07T07:07:14;19.24;68.01
28175;SHT30;59417;44.788;10.334;2023-05-07T07:09:42;19.39;67.96
28175;SHT30;59417;44.788;10.334;2023-05-07T07:12:09;19.44;68.50
28175;SHT30;59417;44.788;10.334;2023-05-07T07:14:37;19.41;66.93
28175;SHT30;59417;44.788;10.334;2023-05-07T07:17:03;19.58;67.77
28175;SHT30;59417;44.788;10.334;2023-05-07T07:19:30;19.65;67.55
28175;SHT30;59417;44.788;10.334;2023-05-07T07:21:57;19.72;67.28
28175;SHT30;59417;44.788;10.334;2023-05-07T07:24:23;19.76;66.80
28175;SHT30;59417;44.788;10.334;2023-05-07T07:26:53;19.80;65.67
28175;SHT30;59417;44.788;10.334;2023-05-07T07:29:21;19.92;67.11
28175;SHT30;59417;44.788;10.334;2023-05-07T07:31:48;20.00;66.45
28175;SHT30;59417;44.788;10.334;2023-05-07T07:34:17;19.92;65.30
28175;SHT30;59417;44.788;10.334;2023-05-07T07:36:43;20.02;65.37
28175;SHT30;59417;44.788;10.334;2023-05-07T07:39:08;20.00;65.11
28175;SHT30;59417;44.788;10.334;2023-05-07T07:41:35;20.09;65.26
28175;SHT30;59417;44.788;10.334;2023-05-07T07:44:02;20.26;65.09
28175;SHT30;59417;44.788;10.334;2023-05-07T07:46:29;20.33;65.15
28175;SHT30;59417;44.788;10.334;2023-05-07T07:48:55;20.48;64.85
28175;SHT30;59417;44.788;10.334;2023-05-07T07:51:23;20.44;63.55
28175;SHT30;59417;44.788;10.334;2023-05-07T07:53:49;20.45;63.97
28175;SHT30;59417;44.788;10.334;2023-05-07T07:56:16;20.45;63.39
28175;SHT30;59417;44.788;10.334;2023-05-07T07:58:42;20.61;64.12
28175;SHT30;59417;44.788;10.334;2023-05-07T08:01:07;20.64;64.28
28175;SHT30;59417;44.788;10.334;2023-05-07T08:03:33;20.64;64.73
28175;SHT30;59417;44.788;10.334;2023-05-07T08:06:01;20.70;64.64
28175;SHT30;59417;44.788;10.334;2023-05-07T08:08:27;20.70;64.69
28175;SHT30;59417;44.788;10.334;2023-05-07T08:10:53;20.88;64.90
28175;SHT30;59417;44.788;10.334;2023-05-07T08:13:26;20.98;64.77
28175;SHT30;59417;44.788;10.334;2023-05-07T08:15:53;21.02;61.90
28175;SHT30;59417;44.788;10.334;2023-05-07T08:18:19;21.06;62.38
28175;SHT30;59417;44.788;10.334;2023-05-07T08:20:45;21.12;63.05
28175;SHT30;59417;44.788;10.334;2023-05-07T08:23:14;21.15;63.46
28175;SHT30;59417;44.788;10.334;2023-05-07T08:25:42;21.09;63.20
28175;SHT30;59417;44.788;10.334;2023-05-07T08:28:08;21.11;63.96
28175;SHT30;59417;44.788;10.334;2023-05-07T08:30:34;21.32;63.48
28175;SHT30;59417;44.788;10.334;2023-05-07T08:33:00;21.46;62.90
28175;SHT30;59417;44.788;10.334;2023-05-07T08:35:26;21.45;62.76
28175;SHT30;59417;44.788;10.334;2023-05-07T08:37:53;21.47;63.61
28175;SHT30;59417;44.788;10.334;2023-05-07T08:40:25;21.77;62.98
28175;SHT30;59417;44.788;10.334;2023-05-07T08:42:56;21.73;61.62
28175;SHT30;59417;44.788;10.334;2023-05-07T08:45:22;21.78;61.52
28175;SHT30;59417;44.788;10.334;2023-05-07T08:47:54;21.78;61.66
28175;SHT30;59417;44.788;10.334;2023-05-07T08:50:23;21.81;62.07
28175;SHT30;59417;44.788;10.334;2023-05-07T08:52:50;22.07;62.28
28175;SHT30;59417;44.788;10.334;2023-05-07T08:55:18;22.13;62.19
28175;SHT30;59417;44.788;10.334;2023-05-07T08:57:44;22.10;60.76
28175;SHT30;59417;44.788;10.334;2023-05-07T09:00:12;22.08;60.86
28175;SHT30;59417;44.788;10.334;2023-05-07T09:02:39;22.25;61.35
28175;SHT30;59417;44.788;10.334;2023-05-07T09:05:07;22.37;60.20
28175;SHT30;59417;44.788;10.334;2023-05-07T09:07:33;22.54;60.02
28175;SHT30;59417;44.788;10.334;2023-05-07T09:10:04;22.48;59.47
28175;SHT30;59417;44.788;10.334;2023-05-07T09:12:32;22.65;58.37
28175;SHT30;59417;44.788;10.334;2023-05-07T09:14:59;22.65;58.54
28175;SHT30;59417;44.788;10.334;2023-05-07T09:17:26;22.72;61.02
28175;SHT30;59417;44.788;10.334;2023-05-07T09:19:52;22.80;57.26
28175;SHT30;59417;44.788;10.334;2023-05-07T09:22:19;22.82;57.56
28175;SHT30;59417;44.788;10.334;2023-05-07T09:24:53;22.85;57.64
28175;SHT30;59417;44.788;10.334;2023-05-07T09:27:23;22.99;57.67
28175;SHT30;59417;44.788;10.334;2023-05-07T09:29:49;22.96;57.68
28175;SHT30;59417;44.788;10.334;2023-05-07T09:32:16;23.00;58.62
28175;SHT30;59417;44.788;10.334;2023-05-07T09:34:42;23.22;58.32
28175;SHT30;59417;44.788;10.334;2023-05-07T09:37:08;23.43;56.48
28175;SHT30;59417;44.788;10.334;2023-05-07T09:39:43;23.63;56.06
28175;SHT30;59417;44.788;10.334;2023-05-07T09:42:11;23.54;56.61
28175;SHT30;59417;44.788;10.334;2023-05-07T09:44:42;23.57;55.87
28175;SHT30;59417;44.788;10.334;2023-05-07T09:47:18;23.67;55.33
28175;SHT30;59417;44.788;10.334;2023-05-07T09:49:48;23.61;55.06
28175;SHT30;59417;44.788;10.334;2023-05-07T09:52:16;23.74;55.80
28175;SHT30;59417;44.788;10.334;2023-05-07T09:54:50;23.71;55.84
28175;SHT30;59417;44.788;10.334;2023-05-07T09:57:18;23.81;55.75
28175;SHT30;59417;44.788;10.334;2023-05-07T09:59:47;24.12;55.08
28175;SHT30;59417;44.788;10.334;2023-05-07T10:02:17;24.16;56.21
28175;SHT30;59417;44.788;10.334;2023-05-07T10:04:48;24.39;56.38
28175;SHT30;59417;44.788;10.334;2023-05-07T10:07:17;24.51;55.90
28175;SHT30;59417;44.788;10.334;2023-05-07T10:09:44;24.43;55.35
28175;SHT30;59417;44.788;10.334;2023-05-07T10:12:21;24.45;55.58
28175;SHT30;59417;44.788;10.334;2023-05-07T10:14:47;24.72;55.79
28175;SHT30;59417;44.788;10.334;2023-05-07T10:17:16;24.63;53.60
28175;SHT30;59417;44.788;10.334;2023-05-07T10:19:45;24.49;54.52
28175;SHT30;59417;44.788;10.334;2023-05-07T10:22:12;24.49;54.75
28175;SHT30;59417;44.788;10.334;2023-05-07T10:24:44;24.57;55.75
28175;SHT30;59417;44.788;10.334;2023-05-07T10:27:16;24.52;53.88
28175;SHT30;59417;44.788;10.334;2023-05-07T10:30:03;24.56;54.72
28175;SHT30;59417;44.788;10.334;2023-05-07T10:32:39;24.56;54.85
28175;SHT30;59417;44.788;10.334;2023-05-07T10:35:58;24.46;54.28
28175;SHT30;59417;44.788;10.334;2023-05-07T10:38:00;24.45;55.14
28175;SHT30;59417;44.788;10.334;2023-05-07T10:40:30;24.41;56.01
28175;SHT30;59417;44.788;10.334;2023-05-07T10:42:57;24.53;56.33
28175;SHT30;59417;44.788;10.334;2023-05-07T10:45:27;24.69;56.06
28175;SHT30;59417;44.788;10.334;2023-05-07T10:48:11;24.88;56.44
28175;SHT30;59417;44.788;10.334;2023-05-07T10:50:39;25.07;54.62
28175;SHT30;59417;44.788;10.334;2023-05-07T10:58:49;25.18;55.04
28175;SHT30;59417;44.788;10.334;2023-05-07T11:02:03;25.41;54.69
28175;SHT30;59417;44.788;10.334;2023-05-07T11:04:37;25.62;54.03
28175;SHT30;59417;44.788;10.334;2023-05-07T11:07:29;25.81;54.38
28175;SHT30;59417;44.788;10.334;2023-05-07T11:10:07;25.85;53.25
28175;SHT30;59417;44.788;10.334;2023-05-07T11:15:13;25.86;53.12
28175;SHT30;59417;44.788;10.334;2023-05-07T11:17:56;25.89;53.58
28175;SHT30;59417;44.788;10.334;2023-05-07T11:26:29;26.20;54.06
28175;SHT30;59417;44.788;10.334;2023-05-07T11:28:55;26.22;52.81
28175;SHT30;59417;44.788;10.334;2023-05-07T11:31:26;26.26;52.47
28175;SHT30;59417;44.788;10.334;2023-05-07T11:33:55;26.26;52.86
28175;SHT30;59417;44.788;10.334;2023-05-07T11:36:23;26.33;53.30
28175;SHT30;59417;44.788;10.334;2023-05-07T11:38:50;26.50;52.95
28175;SHT30;59417;44.788;10.334;2023-05-07T11:41:16;26.60;52.73
28175;SHT30;59417;44.788;10.334;2023-05-07T11:43:56;26.67;52.86
28175;SHT30;59417;44.788;10.334;2023-05-07T11:46:22;26.84;51.19
28175;SHT30;59417;44.788;10.334;2023-05-07T11:48:48;26.83;51.85
28175;SHT30;59417;44.788;10.334;2023-05-07T11:51:18;26.81;52.63
28175;SHT30;59417;44.788;10.334;2023-05-07T11:53:45;26.92;51.59
28175;SHT30;59417;44.788;10.334;2023-05-07T11:56:12;27.04;51.39
28175;SHT30;59417;44.788;10.334;2023-05-07T11:58:39;26.92;49.33
28175;SHT30;59417;44.788;10.334;2023-05-07T12:01:07;27.05;51.11
28175;SHT30;59417;44.788;10.334;2023-05-07T12:03:33;27.22;50.08
28175;SHT30;59417;44.788;10.334;2023-05-07T12:05:59;27.31;50.18
28175;SHT30;59417;44.788;10.334;2023-05-07T12:08:25;27.44;50.58
28175;SHT30;59417;44.788;10.334;2023-05-07T12:10:51;27.59;50.41
28175;SHT30;59417;44.788;10.334;2023-05-07T12:13:21;27.62;50.42
28175;SHT30;59417;44.788;10.334;2023-05-07T12:15:51;27.63;50.04
28175;SHT30;59417;44.788;10.334;2023-05-07T12:18:17;27.69;49.59
28175;SHT30;59417;44.788;10.334;2023-05-07T12:20:43;27.67;49.97
28175;SHT30;59417;44.788;10.334;2023-05-07T12:23:11;27.67;51.63
28175;SHT30;59417;44.788;10.334;2023-05-07T12:25:38;27.80;51.43
28175;SHT30;59417;44.788;10.334;2023-05-07T12:28:04;27.77;48.55
28175;SHT30;59417;44.788;10.334;2023-05-07T12:30:39;27.58;48.95
28175;SHT30;59417;44.788;10.334;2023-05-07T12:33:05;27.65;50.52
28175;SHT30;59417;44.788;10.334;2023-05-07T12:35:36;27.73;49.59
28175;SHT30;59417;44.788;10.334;2023-05-07T12:38:02;27.85;49.53
28175;SHT30;59417;44.788;10.334;2023-05-07T12:43:24;27.87;49.17
28175;SHT30;59417;44.788;10.334;2023-05-07T12:45:51;27.70;48.46
28175;SHT30;59417;44.788;10.334;2023-05-07T12:48:17;27.59;49.12
28175;SHT30;59417;44.788;10.334;2023-05-07T12:50:44;27.56;49.25
28175;SHT30;59417;44.788;10.334;2023-05-07T12:53:11;27.63;49.31
28175;SHT30;59417;44.788;10.334;2023-05-07T12:55:51;27.80;48.22
28175;SHT30;59417;44.788;10.334;2023-05-07T12:58:25;27.89;48.83
28175;SHT30;59417;44.788;10.334;2023-05-07T13:00:52;27.99;48.61
28175;SHT30;59417;44.788;10.334;2023-05-07T13:03:29;28.06;47.68
28175;SHT30;59417;44.788;10.334;2023-05-07T13:05:57;28.09;47.08
28175;SHT30;59417;44.788;10.334;2023-05-07T13:08:29;28.05;46.44
28175;SHT30;59417;44.788;10.334;2023-05-07T13:10:55;27.96;47.55
28175;SHT30;59417;44.788;10.334;2023-05-07T13:13:21;27.77;46.81
28175;SHT30;59417;44.788;10.334;2023-05-07T13:15:47;27.82;47.83
28175;SHT30;59417;44.788;10.334;2023-05-07T13:18:13;27.89;48.90
28175;SHT30;59417;44.788;10.334;2023-05-07T13:20:39;27.99;49.39
28175;SHT30;59417;44.788;10.334;2023-05-07T13:23:04;27.97;49.27
28175;SHT30;59417;44.788;10.334;2023-05-07T13:25:30;27.76;47.50
28175;SHT30;59417;44.788;10.334;2023-05-07T13:27:57;27.58;48.37
28175;SHT30;59417;44.788;10.334;2023-05-07T13:30:22;27.46;48.66
28175;SHT30;59417;44.788;10.334;2023-05-07T13:32:48;27.52;50.16
28175;SHT30;59417;44.788;10.334;2023-05-07T13:35:16;27.58;49.74
28175;SHT30;59417;44.788;10.334;2023-05-07T13:37:42;27.66;48.45
28175;SHT30;59417;44.788;10.334;2023-05-07T13:40:08;27.65;47.58
28175;SHT30;59417;44.788;10.334;2023-05-07T13:42:34;27.72;48.87
28175;SHT30;59417;44.788;10.334;2023-05-07T13:44:59;27.75;48.88
28175;SHT30;59417;44.788;10.334;2023-05-07T13:47:26;27.76;50.06
28175;SHT30;59417;44.788;10.334;2023-05-07T13:49:51;27.80;48.16
28175;SHT30;59417;44.788;10.334;2023-05-07T13:52:17;27.76;48.46
28175;SHT30;59417;44.788;10.334;2023-05-07T13:54:43;27.67;48.05
28175;SHT30;59417;44.788;10.334;2023-05-07T13:57:08;27.66;47.29
28175;SHT30;59417;44.788;10.334;2023-05-07T13:59:34;27.70;48.55
28175;SHT30;59417;44.788;10.334;2023-05-07T14:02:00;27.75;48.29
28175;SHT30;59417;44.788;10.334;2023-05-07T14:04:26;27.77;48.37
28175;SHT30;59417;44.788;10.334;2023-05-07T14:06:52;27.80;47.92
28175;SHT30;59417;44.788;10.334;2023-05-07T14:09:17;27.80;48.47
28175;SHT30;59417;44.788;10.334;2023-05-07T14:11:43;27.76;46.64
28175;SHT30;59417;44.788;10.334;2023-05-07T14:14:09;27.79;47.30
28175;SHT30;59417;44.788;10.334;2023-05-07T14:16:37;27.87;46.52
28175;SHT30;59417;44.788;10.334;2023-05-07T14:19:03;27.80;46.93
28175;SHT30;59417;44.788;10.334;2023-05-07T14:21:29;27.82;47.22
28175;SHT30;59417;44.788;10.334;2023-05-07T14:23:55;27.82;45.11
28175;SHT30;59417;44.788;10.334;2023-05-07T14:26:21;27.69;47.01
28175;SHT30;59417;44.788;10.334;2023-05-07T14:28:48;27.69;48.27
28175;SHT30;59417;44.788;10.334;2023-05-07T14:31:14;27.76;49.15
28175;SHT30;59417;44.788;10.334;2023-05-07T14:33:40;27.77;48.09
28175;SHT30;59417;44.788;10.334;2023-05-07T14:36:06;27.82;47.73
28175;SHT30;59417;44.788;10.334;2023-05-07T14:38:32;27.90;47.70
28175;SHT30;59417;44.788;10.334;2023-05-07T14:40:58;27.66;46.28
28175;SHT30;59417;44.788;10.334;2023-05-07T14:43:24;27.53;47.11
28175;SHT30;59417;44.788;10.334;2023-05-07T14:45:50;27.46;48.60
28175;SHT30;59417;44.788;10.334;2023-05-07T14:48:15;27.45;48.00
28175;SHT30;59417;44.788;10.334;2023-05-07T14:50:42;27.44;47.88
28175;SHT30;59417;44.788;10.334;2023-05-07T14:53:07;27.39;47.41
28175;SHT30;59417;44.788;10.334;2023-05-07T14:55:34;27.45;48.13
28175;SHT30;59417;44.788;10.334;2023-05-07T14:58:00;27.44;48.17
28175;SHT30;59417;44.788;10.334;2023-05-07T15:00:26;27.41;48.08
28175;SHT30;59417;44.788;10.334;2023-05-07T15:02:51;27.37;47.69
28175;SHT30;59417;44.788;10.334;2023-05-07T15:05:17;27.37;47.66
28175;SHT30;59417;44.788;10.334;2023-05-07T15:07:44;27.49;46.89
28175;SHT30;59417;44.788;10.334;2023-05-07T15:10:10;27.29;47.08
28175;SHT30;59417;44.788;10.334;2023-05-07T15:12:36;27.12;47.21
28175;SHT30;59417;44.788;10.334;2023-05-07T15:15:02;27.05;48.36
28175;SHT30;59417;44.788;10.334;2023-05-07T15:17:27;27.05;49.26
28175;SHT30;59417;44.788;10.334;2023-05-07T15:19:53;27.12;48.86
28175;SHT30;59417;44.788;10.334;2023-05-07T15:22:19;27.11;48.82
28175;SHT30;59417;44.788;10.334;2023-05-07T15:24:47;27.18;48.75
28175;SHT30;59417;44.788;10.334;2023-05-07T15:27:12;27.15;49.36
28175;SHT30;59417;44.788;10.334;2023-05-07T15:29:38;27.19;48.90
28175;SHT30;59417;44.788;10.334;2023-05-07T15:32:03;27.22;48.94
28175;SHT30;59417;44.788;10.334;2023-05-07T15:34:29;27.22;48.31